sensor_id;sensor_type;location;lat;lon;timestamp;P1;durP1;ratioP1;P2;durP2;ratioP2
9473;SDS011;8865;47.636;7.692;2022-12-10T00:00:22;35.13;;;23.50;;
9473;SDS011;8865;47.636;7.692;2022-12-10T00:02:48;36.63;;;24.37;;
9473;SDS011;8865;47.636;7.692;2022-12-10T00:05:14;34.87;;;24.13;;
9473;SDS011;8865;47.636;7.692;2022-12-10T00:07:39;34.50;;;23.33;;
9473;SDS011;8865;47.636;7.692;2022-12-10T00:10:05;36.47;;;24.50;;
9473;SDS011;8865;47.636;7.692;2022-12-10T00:12:32;36.17;;;24.40;;
9473;SDS011;8865;47.636;7.692;2022-12-10T00:14:58;38.87;;;24.07;;
9473;SDS011;8865;47.636;7.692;2022-12-10T00:17:24;39.40;;;26.43;;
9473;SDS011;8865;47.636;7.692;2022-12-10T00:19:50;37.97;;;25.43;;
9473;SDS011;8865;47.636;7.692;2022-12-10T00:22:16;34.40;;;24.03;;
9473;SDS011;8865;47.636;7.692;2022-12-10T00:24:42;36.50;;;24.30;;
9473;SDS011;8865;47.636;7.692;2022-12-10T00:27:08;33.30;;;22.80;;
9473;SDS011;8865;47.636;7.692;2022-12-10T00:29:34;35.97;;;23.80;;
9473;SDS011;8865;47.636;7.692;2022-12-10T00:32:00;32.20;;;23.40;;
9473;SDS011;8865;47.636;7.692;2022-12-10T00:34:25;37.93;;;23.97;;
9473;SDS011;8865;47.636;7.692;2022-12-10T00:36:51;34.33;;;23.23;;
9473;SDS011;8865;47.636;7.692;2022-12-10T00:39:19;31.50;;;21.33;;
9473;SDS011;8865;47.636;7.692;2022-12-10T00:41:46;32.60;;;22.30;;
9473;SDS011;8865;47.636;7.692;2022-12-10T00:44:12;33.83;;;23.23;;
9473;SDS011;8865;47.636;7.692;2022-12-10T00:46:39;33.57;;;23.07;;
9473;SDS011;8865;47.636;7.692;2022-12-10T00:49:05;32.40;;;21.90;;
9473;SDS011;8865;47.636;7.692;2022-12-10T00:51:31;34.57;;;22.53;;
9473;SDS011;8865;47.636;7.692;2022-12-10T00:53:57;32.70;;;22.20;;
9473;SDS011;8865;47.636;7.692;2022-12-10T00:56:25;34.30;;;21.93;;
9473;SDS011;8865;47.636;7.692;2022-12-10T00:58:54;30.50;;;21.80;;
9473;SDS011;8865;47.636;7.692;2022-12-10T01:01:27;31.33;;;21.33;;
9473;SDS011;8865;47.636;7.692;2022-12-10T01:03:55;33.73;;;21.93;;
9473;SDS011;8865;47.636;7.692;2022-12-10T01:06:28;36.87;;;23.43;;
9473;SDS011;8865;47.636;7.692;2022-12-10T01:08:58;31.87;;;22.17;;
9473;SDS011;8865;47.636;7.692;2022-12-10T01:11:29;32.37;;;22.13;;
9473;SDS011;8865;47.636;7.692;2022-12-10T01:13:57;32.67;;;21.67;;
9473;SDS011;8865;47.636;7.692;2022-12-10T01:16:23;32.77;;;22.43;;
9473;SDS011;8865;47.636;7.692;2022-12-10T01:18:54;33.73;;;21.53;;
9473;SDS011;8865;47.636;7.692;2022-12-10T01:21:21;31.13;;;22.13;;
9473;SDS011;8865;47.636;7.692;2022-12-10T01:23:49;35.00;;;22.07;;
9473;SDS011;8865;47.636;7.692;2022-12-10T01:26:17;32.97;;;23.33;;
9473;SDS011;8865;47.636;7.692;2022-12-10T01:28:48;33.13;;;22.73;;
9473;SDS011;8865;47.636;7.692;2022-12-10T01:31:17;31.87;;;22.20;;
9473;SDS011;8865;47.636;7.692;2022-12-10T01:33:44;29.33;;;21.00;;
9473;SDS011;8865;47.636;7.692;2022-12-10T01:36:12;33.23;;;22.00;;
9473;SDS011;8865;47.636;7.692;2022-12-10T01:38:39;32.97;;;21.97;;
9473;SDS011;8865;47.636;7.692;2022-12-10T01:41:07;33.83;;;22.67;;
9473;SDS011;8865;47.636;7.692;2022-12-10T01:43:52;31.60;;;21.80;;
9473;SDS011;8865;47.636;7.692;2022-12-10T01:46:26;31.60;;;22.00;;
9473;SDS011;8865;47.636;7.692;2022-12-10T01:48:56;29.17;;;21.40;;
9473;SDS011;8865;47.636;7.692;2022-12-10T01:51:24;32.53;;;21.23;;
9473;SDS011;8865;47.636;7.692;2022-12-10T01:53:52;33.87;;;22.13;;
9473;SDS011;8865;47.636;7.692;2022-12-10T01:56:20;32.70;;;21.77;;
9473;SDS011;8865;47.636;7.692;2022-12-10T01:58:47;33.47;;;22.33;;
9473;SDS011;8865;47.636;7.692;2022-12-10T02:01:21;33.20;;;21.83;;
9473;SDS011;8865;47.636;7.692;2022-12-10T02:09:34;31.60;;;21.43;;
9473;SDS011;8865;47.636;7.692;2022-12-10T02:12:12;36.73;;;22.77;;
9473;SDS011;8865;47.636;7.692;2022-12-10T02:15:20;31.70;;;22.70;;
9473;SDS011;8865;47.636;7.692;2022-12-10T02:17:55;33.47;;;22.27;;
9473;SDS011;8865;47.636;7.692;2022-12-10T02:20:35;32.10;;;22.53;;
9473;SDS011;8865;47.636;7.692;2022-12-10T02:23:08;32.37;;;21.83;;
9473;SDS011;8865;47.636;7.692;2022-12-10T02:25:45;32.77;;;21.80;;
9473;SDS011;8865;47.636;7.692;2022-12-10T02:31:18;29.77;;;21.87;;
9473;SDS011;8865;47.636;7.692;2022-12-10T02:33:49;30.90;;;21.03;;
9473;SDS011;8865;47.636;7.692;2022-12-10T02:36:19;32.10;;;21.57;;
9473;SDS011;8865;47.636;7.692;2022-12-10T02:38:47;29.40;;;22.40;;
9473;SDS011;8865;47.636;7.692;2022-12-10T02:41:22;31.67;;;21.20;;
9473;SDS011;8865;47.636;7.692;2022-12-10T02:43:53;30.20;;;21.10;;
9473;SDS011;8865;47.636;7.692;2022-12-10T02:46:22;31.20;;;22.17;;
9473;SDS011;8865;47.636;7.692;2022-12-10T02:48:50;31.90;;;22.73;;
9473;SDS011;8865;47.636;7.692;2022-12-10T02:51:17;31.53;;;22.23;;
9473;SDS011;8865;47.636;7.692;2022-12-10T02:53:44;29.10;;;21.03;;
9473;SDS011;8865;47.636;7.692;2022-12-10T02:56:24;30.43;;;21.37;;
9473;SDS011;8865;47.636;7.692;2022-12-10T03:04:22;29.03;;;22.17;;
9473;SDS011;8865;47.636;7.692;2022-12-10T03:06:55;30.17;;;22.00;;
9473;SDS011;8865;47.636;7.692;2022-12-10T03:09:27;31.17;;;22.80;;
9473;SDS011;8865;47.636;7.692;2022-12-10T03:12:30;29.77;;;22.23;;
9473;SDS011;8865;47.636;7.692;2022-12-10T03:15:14;29.23;;;21.10;;
9473;SDS011;8865;47.636;7.692;2022-12-10T03:17:44;32.83;;;23.33;;
9473;SDS011;8865;47.636;7.692;2022-12-10T03:20:12;31.47;;;21.67;;
9473;SDS011;8865;47.636;7.692;2022-12-10T03:22:42;28.53;;;21.13;;
9473;SDS011;8865;47.636;7.692;2022-12-10T03:25:13;28.67;;;21.53;;
9473;SDS011;8865;47.636;7.692;2022-12-10T03:27:42;30.67;;;21.97;;
9473;SDS011;8865;47.636;7.692;2022-12-10T03:30:11;28.23;;;21.40;;
9473;SDS011;8865;47.636;7.692;2022-12-10T03:32:37;30.40;;;21.60;;
9473;SDS011;8865;47.636;7.692;2022-12-10T03:35:03;32.23;;;22.07;;
9473;SDS011;8865;47.636;7.692;2022-12-10T03:37:31;32.43;;;21.93;;
9473;SDS011;8865;47.636;7.692;2022-12-10T03:39:58;31.03;;;22.30;;
9473;SDS011;8865;47.636;7.692;2022-12-10T03:42:25;26.80;;;21.43;;
9473;SDS011;8865;47.636;7.692;2022-12-10T03:44:51;29.00;;;22.33;;
9473;SDS011;8865;47.636;7.692;2022-12-10T03:47:18;29.10;;;21.83;;
9473;SDS011;8865;47.636;7.692;2022-12-10T03:49:45;31.67;;;21.90;;
9473;SDS011;8865;47.636;7.692;2022-12-10T03:52:11;29.73;;;21.87;;
9473;SDS011;8865;47.636;7.692;2022-12-10T03:54:37;29.00;;;22.60;;
9473;SDS011;8865;47.636;7.692;2022-12-10T03:57:04;30.27;;;21.67;;
9473;SDS011;8865;47.636;7.692;2022-12-10T03:59:30;28.07;;;20.90;;
9473;SDS011;8865;47.636;7.692;2022-12-10T04:01:56;28.77;;;21.13;;
9473;SDS011;8865;47.636;7.692;2022-12-10T04:04:22;26.37;;;20.67;;
9473;SDS011;8865;47.636;7.692;2022-12-10T04:06:48;28.10;;;21.57;;
9473;SDS011;8865;47.636;7.692;2022-12-10T04:09:14;26.30;;;20.40;;
9473;SDS011;8865;47.636;7.692;2022-12-10T04:11:42;28.27;;;21.43;;
9473;SDS011;8865;47.636;7.692;2022-12-10T04:14:09;26.00;;;20.73;;
9473;SDS011;8865;47.636;7.692;2022-12-10T04:16:54;24.43;;;19.57;;
9473;SDS011;8865;47.636;7.692;2022-12-10T04:19:20;23.60;;;19.67;;
9473;SDS011;8865;47.636;7.692;2022-12-10T04:21:47;28.37;;;20.37;;
9473;SDS011;8865;47.636;7.692;2022-12-10T04:24:32;24.67;;;19.97;;
9473;SDS011;8865;47.636;7.692;2022-12-10T04:27:22;29.83;;;22.20;;
9473;SDS011;8865;47.636;7.692;2022-12-10T04:29:50;26.63;;;21.03;;
9473;SDS011;8865;47.636;7.692;2022-12-10T04:32:16;25.43;;;20.50;;
9473;SDS011;8865;47.636;7.692;2022-12-10T04:34:43;25.10;;;19.63;;
9473;SDS011;8865;47.636;7.692;2022-12-10T04:37:09;25.80;;;20.50;;
9473;SDS011;8865;47.636;7.692;2022-12-10T04:39:38;29.30;;;20.70;;
9473;SDS011;8865;47.636;7.692;2022-12-10T04:42:05;26.67;;;20.47;;
9473;SDS011;8865;47.636;7.692;2022-12-10T04:44:31;25.47;;;20.17;;
9473;SDS011;8865;47.636;7.692;2022-12-10T04:46:58;24.60;;;19.20;;
9473;SDS011;8865;47.636;7.692;2022-12-10T04:49:24;24.03;;;19.77;;
9473;SDS011;8865;47.636;7.692;2022-12-10T04:51:50;25.20;;;20.13;;
9473;SDS011;8865;47.636;7.692;2022-12-10T04:54:18;26.63;;;20.80;;
9473;SDS011;8865;47.636;7.692;2022-12-10T04:56:45;28.50;;;20.70;;
9473;SDS011;8865;47.636;7.692;2022-12-10T04:59:11;26.90;;;20.93;;
9473;SDS011;8865;47.636;7.692;2022-12-10T05:01:38;25.23;;;20.80;;
9473;SDS011;8865;47.636;7.692;2022-12-10T05:04:05;28.40;;;21.50;;
9473;SDS011;8865;47.636;7.692;2022-12-10T05:06:33;27.83;;;21.23;;
9473;SDS011;8865;47.636;7.692;2022-12-10T05:08:59;25.93;;;21.37;;
9473;SDS011;8865;47.636;7.692;2022-12-10T05:11:26;25.40;;;20.23;;
9473;SDS011;8865;47.636;7.692;2022-12-10T05:13:54;25.43;;;20.17;;
9473;SDS011;8865;47.636;7.692;2022-12-10T05:16:21;29.47;;;21.83;;
9473;SDS011;8865;47.636;7.692;2022-12-10T05:18:49;29.37;;;21.43;;
9473;SDS011;8865;47.636;7.692;2022-12-10T05:21:17;27.13;;;20.73;;
9473;SDS011;8865;47.636;7.692;2022-12-10T05:23:46;28.77;;;21.57;;
9473;SDS011;8865;47.636;7.692;2022-12-10T05:26:17;26.83;;;21.47;;
9473;SDS011;8865;47.636;7.692;2022-12-10T05:28:52;26.73;;;21.27;;
9473;SDS011;8865;47.636;7.692;2022-12-10T05:33:50;28.83;;;21.23;;
9473;SDS011;8865;47.636;7.692;2022-12-10T05:36:18;25.53;;;20.43;;
9473;SDS011;8865;47.636;7.692;2022-12-10T05:38:46;28.57;;;20.90;;
9473;SDS011;8865;47.636;7.692;2022-12-10T05:41:16;26.30;;;20.60;;
9473;SDS011;8865;47.636;7.692;2022-12-10T05:43:44;27.40;;;20.43;;
9473;SDS011;8865;47.636;7.692;2022-12-10T05:46:15;27.03;;;20.67;;
9473;SDS011;8865;47.636;7.692;2022-12-10T05:48:43;30.00;;;20.83;;
9473;SDS011;8865;47.636;7.692;2022-12-10T05:51:11;27.93;;;20.90;;
9473;SDS011;8865;47.636;7.692;2022-12-10T05:53:39;25.87;;;20.47;;
9473;SDS011;8865;47.636;7.692;2022-12-10T05:56:06;26.27;;;21.37;;
9473;SDS011;8865;47.636;7.692;2022-12-10T05:58:34;28.43;;;21.73;;
9473;SDS011;8865;47.636;7.692;2022-12-10T06:01:05;27.97;;;21.20;;
9473;SDS011;8865;47.636;7.692;2022-12-10T06:03:32;28.00;;;20.93;;
9473;SDS011;8865;47.636;7.692;2022-12-10T06:05:58;28.10;;;21.43;;
9473;SDS011;8865;47.636;7.692;2022-12-10T06:08:24;27.63;;;21.33;;
9473;SDS011;8865;47.636;7.692;2022-12-10T06:10:50;27.87;;;20.93;;
9473;SDS011;8865;47.636;7.692;2022-12-10T06:13:15;27.97;;;21.47;;
9473;SDS011;8865;47.636;7.692;2022-12-10T06:15:42;28.87;;;22.40;;
9473;SDS011;8865;47.636;7.692;2022-12-10T06:18:09;27.37;;;21.90;;
9473;SDS011;8865;47.636;7.692;2022-12-10T06:20:37;29.23;;;22.30;;
9473;SDS011;8865;47.636;7.692;2022-12-10T06:23:05;29.07;;;21.87;;
9473;SDS011;8865;47.636;7.692;2022-12-10T06:25:32;29.07;;;21.90;;
9473;SDS011;8865;47.636;7.692;2022-12-10T06:27:58;28.87;;;22.20;;
9473;SDS011;8865;47.636;7.692;2022-12-10T06:30:25;29.27;;;21.20;;
9473;SDS011;8865;47.636;7.692;2022-12-10T06:32:51;24.77;;;20.00;;
9473;SDS011;8865;47.636;7.692;2022-12-10T06:35:17;26.47;;;20.77;;
9473;SDS011;8865;47.636;7.692;2022-12-10T06:37:43;27.00;;;20.43;;
9473;SDS011;8865;47.636;7.692;2022-12-10T06:40:09;26.23;;;20.97;;
9473;SDS011;8865;47.636;7.692;2022-12-10T06:42:35;28.47;;;21.03;;
9473;SDS011;8865;47.636;7.692;2022-12-10T06:45:01;28.47;;;20.90;;
9473;SDS011;8865;47.636;7.692;2022-12-10T06:47:27;27.30;;;21.10;;
9473;SDS011;8865;47.636;7.692;2022-12-10T06:49:53;29.73;;;22.30;;
9473;SDS011;8865;47.636;7.692;2022-12-10T06:52:19;26.23;;;19.80;;
9473;SDS011;8865;47.636;7.692;2022-12-10T06:54:45;27.27;;;20.77;;
9473;SDS011;8865;47.636;7.692;2022-12-10T06:57:11;28.17;;;20.63;;
9473;SDS011;8865;47.636;7.692;2022-12-10T06:59:37;27.00;;;20.30;;
9473;SDS011;8865;47.636;7.692;2022-12-10T07:02:03;27.87;;;20.77;;
9473;SDS011;8865;47.636;7.692;2022-12-10T07:04:29;27.83;;;20.93;;
9473;SDS011;8865;47.636;7.692;2022-12-10T07:06:55;29.57;;;20.83;;
9473;SDS011;8865;47.636;7.692;2022-12-10T07:09:21;28.73;;;21.37;;
9473;SDS011;8865;47.636;7.692;2022-12-10T07:11:47;25.77;;;20.20;;
9473;SDS011;8865;47.636;7.692;2022-12-10T07:14:14;24.40;;;19.13;;
9473;SDS011;8865;47.636;7.692;2022-12-10T07:16:42;25.07;;;19.77;;
9473;SDS011;8865;47.636;7.692;2022-12-10T07:19:09;25.50;;;19.67;;
9473;SDS011;8865;47.636;7.692;2022-12-10T07:21:37;22.13;;;18.70;;
9473;SDS011;8865;47.636;7.692;2022-12-10T07:24:13;23.90;;;18.40;;
9473;SDS011;8865;47.636;7.692;2022-12-10T07:26:42;22.30;;;18.10;;
9473;SDS011;8865;47.636;7.692;2022-12-10T07:29:12;22.87;;;17.97;;
9473;SDS011;8865;47.636;7.692;2022-12-10T07:31:40;21.77;;;16.33;;
9473;SDS011;8865;47.636;7.692;2022-12-10T07:34:06;20.00;;;16.67;;
9473;SDS011;8865;47.636;7.692;2022-12-10T07:36:32;21.37;;;17.40;;
9473;SDS011;8865;47.636;7.692;2022-12-10T07:38:58;21.33;;;16.83;;
9473;SDS011;8865;47.636;7.692;2022-12-10T07:41:25;20.33;;;16.47;;
9473;SDS011;8865;47.636;7.692;2022-12-10T07:43:51;20.37;;;16.13;;
9473;SDS011;8865;47.636;7.692;2022-12-10T07:46:28;21.97;;;17.63;;
9473;SDS011;8865;47.636;7.692;2022-12-10T07:48:55;21.17;;;16.77;;
9473;SDS011;8865;47.636;7.692;2022-12-10T07:51:21;19.87;;;16.77;;
9473;SDS011;8865;47.636;7.692;2022-12-10T07:53:50;19.03;;;15.57;;
9473;SDS011;8865;47.636;7.692;2022-12-10T07:56:17;18.67;;;15.93;;
9473;SDS011;8865;47.636;7.692;2022-12-10T07:58:44;18.70;;;15.63;;
9473;SDS011;8865;47.636;7.692;2022-12-10T08:01:16;20.03;;;16.43;;
9473;SDS011;8865;47.636;7.692;2022-12-10T08:03:45;17.00;;;14.87;;
9473;SDS011;8865;47.636;7.692;2022-12-10T08:06:12;17.27;;;15.00;;
9473;SDS011;8865;47.636;7.692;2022-12-10T08:08:40;18.03;;;15.53;;
9473;SDS011;8865;47.636;7.692;2022-12-10T08:11:07;15.80;;;14.10;;
9473;SDS011;8865;47.636;7.692;2022-12-10T08:13:33;16.63;;;14.57;;
9473;SDS011;8865;47.636;7.692;2022-12-10T08:16:07;15.17;;;13.57;;
9473;SDS011;8865;47.636;7.692;2022-12-10T08:18:38;16.13;;;14.13;;
9473;SDS011;8865;47.636;7.692;2022-12-10T08:21:08;16.40;;;13.77;;
9473;SDS011;8865;47.636;7.692;2022-12-10T08:23:36;16.17;;;14.43;;
9473;SDS011;8865;47.636;7.692;2022-12-10T08:26:04;16.10;;;13.53;;
9473;SDS011;8865;47.636;7.692;2022-12-10T08:28:30;14.87;;;13.10;;
9473;SDS011;8865;47.636;7.692;2022-12-10T08:30:57;16.20;;;14.43;;
9473;SDS011;8865;47.636;7.692;2022-12-10T08:33:23;15.93;;;13.57;;
9473;SDS011;8865;47.636;7.692;2022-12-10T08:35:50;15.77;;;14.03;;
9473;SDS011;8865;47.636;7.692;2022-12-10T08:38:16;15.77;;;13.30;;
9473;SDS011;8865;47.636;7.692;2022-12-10T08:40:42;14.20;;;12.70;;
9473;SDS011;8865;47.636;7.692;2022-12-10T08:43:08;14.87;;;13.23;;
9473;SDS011;8865;47.636;7.692;2022-12-10T08:45:34;16.33;;;13.57;;
9473;SDS011;8865;47.636;7.692;2022-12-10T08:48:01;15.17;;;12.43;;
9473;SDS011;8865;47.636;7.692;2022-12-10T08:50:27;16.87;;;12.93;;
9473;SDS011;8865;47.636;7.692;2022-12-10T08:52:53;20.43;;;17.10;;
9473;SDS011;8865;47.636;7.692;2022-12-10T08:55:19;15.13;;;13.30;;
9473;SDS011;8865;47.636;7.692;2022-12-10T08:57:45;15.27;;;13.27;;
9473;SDS011;8865;47.636;7.692;2022-12-10T09:00:11;15.47;;;13.60;;
9473;SDS011;8865;47.636;7.692;2022-12-10T09:02:39;16.23;;;13.10;;
9473;SDS011;8865;47.636;7.692;2022-12-10T09:05:06;16.27;;;13.20;;
9473;SDS011;8865;47.636;7.692;2022-12-10T09:07:33;15.53;;;13.30;;
9473;SDS011;8865;47.636;7.692;2022-12-10T09:09:59;16.87;;;14.07;;
9473;SDS011;8865;47.636;7.692;2022-12-10T09:12:25;19.20;;;14.77;;
9473;SDS011;8865;47.636;7.692;2022-12-10T09:14:51;19.60;;;15.57;;
9473;SDS011;8865;47.636;7.692;2022-12-10T09:17:17;18.63;;;15.33;;
9473;SDS011;8865;47.636;7.692;2022-12-10T09:19:43;18.60;;;14.70;;
9473;SDS011;8865;47.636;7.692;2022-12-10T09:22:09;21.67;;;15.87;;
9473;SDS011;8865;47.636;7.692;2022-12-10T09:24:35;26.80;;;20.83;;
9473;SDS011;8865;47.636;7.692;2022-12-10T09:27:01;35.43;;;22.20;;
9473;SDS011;8865;47.636;7.692;2022-12-10T09:29:28;18.97;;;15.57;;
9473;SDS011;8865;47.636;7.692;2022-12-10T09:31:54;19.10;;;15.53;;
9473;SDS011;8865;47.636;7.692;2022-12-10T09:34:20;19.80;;;16.13;;
9473;SDS011;8865;47.636;7.692;2022-12-10T09:36:47;20.20;;;16.03;;
9473;SDS011;8865;47.636;7.692;2022-12-10T09:39:13;22.57;;;17.50;;
9473;SDS011;8865;47.636;7.692;2022-12-10T09:47:12;26.10;;;18.53;;
9473;SDS011;8865;47.636;7.692;2022-12-10T09:52:14;26.30;;;19.10;;
9473;SDS011;8865;47.636;7.692;2022-12-10T09:54:50;28.30;;;19.27;;
9473;SDS011;8865;47.636;7.692;2022-12-10T09:57:31;29.20;;;20.33;;
9473;SDS011;8865;47.636;7.692;2022-12-10T10:00:06;28.93;;;19.83;;
9473;SDS011;8865;47.636;7.692;2022-12-10T10:02:35;28.53;;;19.83;;
9473;SDS011;8865;47.636;7.692;2022-12-10T10:10:39;32.87;;;21.83;;
9473;SDS011;8865;47.636;7.692;2022-12-10T10:15:34;33.93;;;22.97;;
9473;SDS011;8865;47.636;7.692;2022-12-10T10:21:10;31.77;;;21.70;;
9473;SDS011;8865;47.636;7.692;2022-12-10T10:23:44;31.97;;;21.43;;
9473;SDS011;8865;47.636;7.692;2022-12-10T10:26:11;34.73;;;22.40;;
9473;SDS011;8865;47.636;7.692;2022-12-10T10:28:37;33.90;;;22.27;;
9473;SDS011;8865;47.636;7.692;2022-12-10T10:31:20;34.37;;;22.33;;
9473;SDS011;8865;47.636;7.692;2022-12-10T10:34:35;31.03;;;20.93;;
9473;SDS011;8865;47.636;7.692;2022-12-10T10:36:41;34.27;;;21.53;;
9473;SDS011;8865;47.636;7.692;2022-12-10T10:41:42;30.30;;;20.60;;
9473;SDS011;8865;47.636;7.692;2022-12-10T10:44:15;27.57;;;19.57;;
9473;SDS011;8865;47.636;7.692;2022-12-10T10:46:45;29.43;;;20.07;;
9473;SDS011;8865;47.636;7.692;2022-12-10T10:49:23;32.43;;;20.97;;
9473;SDS011;8865;47.636;7.692;2022-12-10T10:51:52;30.60;;;21.23;;
9473;SDS011;8865;47.636;7.692;2022-12-10T10:54:31;33.00;;;21.13;;
9473;SDS011;8865;47.636;7.692;2022-12-10T10:56:58;31.83;;;21.30;;
9473;SDS011;8865;47.636;7.692;2022-12-10T10:59:30;31.27;;;20.87;;
9473;SDS011;8865;47.636;7.692;2022-12-10T11:04:56;32.03;;;21.60;;
9473;SDS011;8865;47.636;7.692;2022-12-10T11:07:47;29.00;;;19.63;;
9473;SDS011;8865;47.636;7.692;2022-12-10T11:10:17;29.30;;;20.00;;
9473;SDS011;8865;47.636;7.692;2022-12-10T11:12:58;31.00;;;20.37;;
9473;SDS011;8865;47.636;7.692;2022-12-10T11:17:55;33.70;;;22.23;;
9473;SDS011;8865;47.636;7.692;2022-12-10T11:20:27;31.83;;;21.47;;
9473;SDS011;8865;47.636;7.692;2022-12-10T11:25:25;37.77;;;22.67;;
9473;SDS011;8865;47.636;7.692;2022-12-10T11:27:57;35.23;;;22.93;;
9473;SDS011;8865;47.636;7.692;2022-12-10T11:30:46;34.20;;;22.80;;
9473;SDS011;8865;47.636;7.692;2022-12-10T11:42:37;36.67;;;23.17;;
9473;SDS011;8865;47.636;7.692;2022-12-10T11:45:08;34.30;;;22.67;;
9473;SDS011;8865;47.636;7.692;2022-12-10T11:47:46;42.53;;;28.37;;
9473;SDS011;8865;47.636;7.692;2022-12-10T12:03:55;31.33;;;21.93;;
9473;SDS011;8865;47.636;7.692;2022-12-10T12:14:51;30.27;;;21.13;;
9473;SDS011;8865;47.636;7.692;2022-12-10T12:17:35;28.23;;;20.43;;
9473;SDS011;8865;47.636;7.692;2022-12-10T12:20:14;29.90;;;21.40;;
9473;SDS011;8865;47.636;7.692;2022-12-10T12:22:58;28.87;;;20.83;;
9473;SDS011;8865;47.636;7.692;2022-12-10T12:25:32;29.67;;;21.27;;
9473;SDS011;8865;47.636;7.692;2022-12-10T12:28:05;29.63;;;21.13;;
9473;SDS011;8865;47.636;7.692;2022-12-10T12:30:58;41.20;;;28.27;;
9473;SDS011;8865;47.636;7.692;2022-12-10T12:33:34;31.03;;;22.53;;
9473;SDS011;8865;47.636;7.692;2022-12-10T12:36:18;27.07;;;20.23;;
9473;SDS011;8865;47.636;7.692;2022-12-10T12:44:52;30.87;;;21.10;;
9473;SDS011;8865;47.636;7.692;2022-12-10T12:50:59;30.13;;;21.27;;
9473;SDS011;8865;47.636;7.692;2022-12-10T12:53:12;28.17;;;19.87;;
9473;SDS011;8865;47.636;7.692;2022-12-10T12:55:57;29.87;;;20.37;;
9473;SDS011;8865;47.636;7.692;2022-12-10T13:03:57;32.50;;;23.10;;
9473;SDS011;8865;47.636;7.692;2022-12-10T13:06:25;31.37;;;22.30;;
9473;SDS011;8865;47.636;7.692;2022-12-10T13:11:41;33.17;;;22.27;;
9473;SDS011;8865;47.636;7.692;2022-12-10T13:14:54;34.33;;;21.77;;
9473;SDS011;8865;47.636;7.692;2022-12-10T13:17:27;31.60;;;21.83;;
9473;SDS011;8865;47.636;7.692;2022-12-10T13:20:25;29.87;;;21.53;;
9473;SDS011;8865;47.636;7.692;2022-12-10T13:22:56;32.83;;;21.93;;
9473;SDS011;8865;47.636;7.692;2022-12-10T13:25:38;28.53;;;20.67;;
9473;SDS011;8865;47.636;7.692;2022-12-10T13:28:55;32.73;;;21.57;;
9473;SDS011;8865;47.636;7.692;2022-12-10T13:31:22;29.13;;;21.17;;
9473;SDS011;8865;47.636;7.692;2022-12-10T13:41:28;32.07;;;21.67;;
9473;SDS011;8865;47.636;7.692;2022-12-10T13:44:26;29.63;;;21.33;;
9473;SDS011;8865;47.636;7.692;2022-12-10T13:47:03;31.10;;;21.73;;
9473;SDS011;8865;47.636;7.692;2022-12-10T13:49:30;31.47;;;22.30;;
9473;SDS011;8865;47.636;7.692;2022-12-10T13:52:04;31.53;;;21.70;;
9473;SDS011;8865;47.636;7.692;2022-12-10T13:59:46;32.83;;;24.85;;
9473;SDS011;8865;47.636;7.692;2022-12-10T14:07:24;34.07;;;23.10;;
9473;SDS011;8865;47.636;7.692;2022-12-10T14:09:52;33.83;;;24.33;;
9473;SDS011;8865;47.636;7.692;2022-12-10T14:15:34;32.23;;;23.17;;
9473;SDS011;8865;47.636;7.692;2022-12-10T14:17:47;35.23;;;22.10;;
9473;SDS011;8865;47.636;7.692;2022-12-10T14:20:25;33.00;;;22.73;;
9473;SDS011;8865;47.636;7.692;2022-12-10T14:22:52;31.70;;;22.03;;
9473;SDS011;8865;47.636;7.692;2022-12-10T14:25:20;31.73;;;21.70;;
9473;SDS011;8865;47.636;7.692;2022-12-10T14:27:49;34.97;;;25.17;;
9473;SDS011;8865;47.636;7.692;2022-12-10T14:30:18;31.70;;;23.03;;
9473;SDS011;8865;47.636;7.692;2022-12-10T14:32:45;32.47;;;22.83;;
9473;SDS011;8865;47.636;7.692;2022-12-10T14:35:13;33.50;;;23.83;;
9473;SDS011;8865;47.636;7.692;2022-12-10T14:37:46;34.07;;;23.57;;
9473;SDS011;8865;47.636;7.692;2022-12-10T14:40:35;34.87;;;24.17;;
9473;SDS011;8865;47.636;7.692;2022-12-10T14:43:08;32.30;;;22.70;;
9473;SDS011;8865;47.636;7.692;2022-12-10T14:45:48;32.37;;;22.73;;
9473;SDS011;8865;47.636;7.692;2022-12-10T14:48:21;35.97;;;23.33;;
9473;SDS011;8865;47.636;7.692;2022-12-10T14:50:48;30.10;;;22.37;;
9473;SDS011;8865;47.636;7.692;2022-12-10T14:53:18;33.90;;;24.00;;
9473;SDS011;8865;47.636;7.692;2022-12-10T14:55:49;34.13;;;23.63;;
9473;SDS011;8865;47.636;7.692;2022-12-10T14:58:27;33.57;;;23.27;;
9473;SDS011;8865;47.636;7.692;2022-12-10T15:01:05;33.03;;;22.43;;
9473;SDS011;8865;47.636;7.692;2022-12-10T15:03:34;33.23;;;22.97;;
9473;SDS011;8865;47.636;7.692;2022-12-10T15:06:07;32.07;;;23.10;;
9473;SDS011;8865;47.636;7.692;2022-12-10T15:08:35;35.77;;;23.80;;
9473;SDS011;8865;47.636;7.692;2022-12-10T15:11:03;34.40;;;24.13;;
9473;SDS011;8865;47.636;7.692;2022-12-10T15:13:32;36.27;;;25.10;;
9473;SDS011;8865;47.636;7.692;2022-12-10T15:16:02;34.23;;;24.13;;
9473;SDS011;8865;47.636;7.692;2022-12-10T15:18:38;37.53;;;25.30;;
9473;SDS011;8865;47.636;7.692;2022-12-10T15:23:46;37.83;;;24.70;;
9473;SDS011;8865;47.636;7.692;2022-12-10T15:26:22;33.07;;;23.53;;
9473;SDS011;8865;47.636;7.692;2022-12-10T15:28:51;34.47;;;22.80;;
9473;SDS011;8865;47.636;7.692;2022-12-10T15:31:37;33.87;;;23.80;;
9473;SDS011;8865;47.636;7.692;2022-12-10T15:34:10;33.30;;;24.00;;
9473;SDS011;8865;47.636;7.692;2022-12-10T15:36:39;35.27;;;24.67;;
9473;SDS011;8865;47.636;7.692;2022-12-10T15:39:23;35.80;;;24.20;;
9473;SDS011;8865;47.636;7.692;2022-12-10T15:42:04;35.70;;;24.97;;
9473;SDS011;8865;47.636;7.692;2022-12-10T15:44:45;35.10;;;24.67;;
9473;SDS011;8865;47.636;7.692;2022-12-10T15:47:18;34.33;;;24.40;;
9473;SDS011;8865;47.636;7.692;2022-12-10T15:49:47;36.90;;;24.80;;
9473;SDS011;8865;47.636;7.692;2022-12-10T15:52:15;36.30;;;25.07;;
9473;SDS011;8865;47.636;7.692;2022-12-10T15:54:43;33.40;;;24.17;;
9473;SDS011;8865;47.636;7.692;2022-12-10T15:57:14;34.67;;;23.70;;
9473;SDS011;8865;47.636;7.692;2022-12-10T15:59:43;33.43;;;23.50;;
9473;SDS011;8865;47.636;7.692;2022-12-10T16:04:55;34.03;;;24.00;;
9473;SDS011;8865;47.636;7.692;2022-12-10T16:07:21;34.40;;;25.37;;
9473;SDS011;8865;47.636;7.692;2022-12-10T16:09:47;33.70;;;24.67;;
9473;SDS011;8865;47.636;7.692;2022-12-10T16:12:14;35.37;;;24.97;;
9473;SDS011;8865;47.636;7.692;2022-12-10T16:14:52;35.27;;;24.20;;
9473;SDS011;8865;47.636;7.692;2022-12-10T16:17:26;35.20;;;25.07;;
9473;SDS011;8865;47.636;7.692;2022-12-10T16:19:53;38.17;;;24.97;;
9473;SDS011;8865;47.636;7.692;2022-12-10T16:22:21;35.37;;;24.07;;
9473;SDS011;8865;47.636;7.692;2022-12-10T16:24:48;35.63;;;24.70;;
9473;SDS011;8865;47.636;7.692;2022-12-10T16:27:14;34.07;;;24.83;;
9473;SDS011;8865;47.636;7.692;2022-12-10T16:29:42;35.23;;;24.97;;
9473;SDS011;8865;47.636;7.692;2022-12-10T16:32:10;35.00;;;24.97;;
9473;SDS011;8865;47.636;7.692;2022-12-10T16:34:36;36.53;;;25.13;;
9473;SDS011;8865;47.636;7.692;2022-12-10T16:37:03;36.20;;;25.37;;
9473;SDS011;8865;47.636;7.692;2022-12-10T16:39:29;36.83;;;24.97;;
9473;SDS011;8865;47.636;7.692;2022-12-10T16:41:55;38.10;;;25.63;;
9473;SDS011;8865;47.636;7.692;2022-12-10T16:44:21;35.33;;;23.60;;
9473;SDS011;8865;47.636;7.692;2022-12-10T16:46:47;33.40;;;24.37;;
9473;SDS011;8865;47.636;7.692;2022-12-10T16:49:14;33.90;;;24.60;;
9473;SDS011;8865;47.636;7.692;2022-12-10T16:51:40;37.70;;;25.03;;
9473;SDS011;8865;47.636;7.692;2022-12-10T16:54:09;31.97;;;23.53;;
9473;SDS011;8865;47.636;7.692;2022-12-10T16:56:36;35.90;;;24.60;;
9473;SDS011;8865;47.636;7.692;2022-12-10T16:59:03;37.13;;;24.93;;
9473;SDS011;8865;47.636;7.692;2022-12-10T17:01:30;34.47;;;24.67;;
9473;SDS011;8865;47.636;7.692;2022-12-10T17:03:56;33.97;;;24.00;;
9473;SDS011;8865;47.636;7.692;2022-12-10T17:06:25;37.00;;;24.33;;